createdAt,value
2019-06-08T00:01:09.638Z,12.10
2019-06-08T00:03:37.439Z,12.10
2019-06-08T00:06:05.160Z,12.10
2019-06-08T00:08:33.295Z,12.10
2019-06-08T00:11:03.480Z,12.10
2019-06-08T00:13:31.190Z,12.10
2019-06-08T00:15:58.928Z,12.10
2019-06-08T00:18:26.984Z,12.10
2019-06-08T00:20:54.728Z,12.10
2019-06-08T00:23:22.427Z,12.00
2019-06-08T00:25:50.144Z,12.10
2019-06-08T00:28:18.865Z,12.10
2019-06-08T00:30:47.315Z,12.10
2019-06-08T00:33:16.747Z,12.00
2019-06-08T00:35:44.527Z,12.00
2019-06-08T00:38:12.301Z,12.00
2019-06-08T00:40:39.986Z,11.90
2019-06-08T00:43:07.685Z,11.90
2019-06-08T00:45:35.424Z,11.80
2019-06-08T00:48:03.218Z,11.80
2019-06-08T00:50:30.911Z,11.80
2019-06-08T00:52:58.721Z,11.80
2019-06-08T00:55:26.403Z,11.70
2019-06-08T00:57:54.123Z,11.60
2019-06-08T01:00:22.514Z,11.50
2019-06-08T01:02:50.419Z,11.40
2019-06-08T01:05:18.250Z,11.30
2019-06-08T01:07:45.939Z,11.30
2019-06-08T01:10:14.147Z,11.30
2019-06-08T01:12:41.916Z,11.20
2019-06-08T01:15:09.974Z,11.10
2019-06-08T01:17:38.026Z,11.10
2019-06-08T01:20:05.916Z,11.10
2019-06-08T01:22:33.646Z,11.00
2019-06-08T01:25:01.513Z,11.00
2019-06-08T01:27:30.152Z,11.00
2019-06-08T01:29:58.004Z,10.90
2019-06-08T01:32:26.399Z,10.80
2019-06-08T01:34:54.152Z,10.80
2019-06-08T01:37:22.987Z,10.70
2019-06-08T01:39:50.788Z,10.60
2019-06-08T01:42:18.476Z,10.50
2019-06-08T01:44:46.155Z,10.50
2019-06-08T01:47:13.868Z,10.50
2019-06-08T01:49:41.560Z,10.40
2019-06-08T01:52:09.310Z,10.30
2019-06-08T01:54:37.485Z,10.30
2019-06-08T01:57:05.173Z,10.20
2019-06-08T01:59:34.710Z,10.10
2019-06-08T02:02:04.323Z,10.10
2019-06-08T02:04:33.218Z,10.00
2019-06-08T02:07:01.519Z,9.90
2019-06-08T02:09:30.411Z,9.90
2019-06-08T02:11:58.530Z,9.80
2019-06-08T02:14:27.104Z,9.80
2019-06-08T02:16:55.036Z,9.80
2019-06-08T02:19:22.744Z,9.70
2019-06-08T02:21:50.887Z,9.70
2019-06-08T02:24:18.604Z,9.70
2019-06-08T02:26:46.299Z,9.60
2019-06-08T02:29:14.014Z,9.70
2019-06-08T02:31:42.054Z,9.70
2019-06-08T02:34:12.079Z,9.70
2019-06-08T02:36:40.836Z,9.70
2019-06-08T02:39:09.295Z,9.70
2019-06-08T02:41:37.578Z,9.70
2019-06-08T02:44:05.813Z,9.60
2019-06-08T02:46:37.583Z,9.60
2019-06-08T02:49:05.421Z,9.60
2019-06-08T02:55:14.612Z,9.50
2019-06-08T02:57:43.290Z,9.40
2019-06-08T03:00:12.218Z,9.30
2019-06-08T03:02:42.694Z,9.30
2019-06-08T03:05:10.808Z,9.20
2019-06-08T03:07:41.359Z,9.20
2019-06-08T03:10:21.308Z,9.10
2019-06-08T03:12:51.651Z,9.10
2019-06-08T03:15:28.439Z,9.10
2019-06-08T03:17:56.556Z,9.10
2019-06-08T03:20:24.246Z,9.10
2019-06-08T03:22:51.980Z,9.20
2019-06-08T03:25:20.005Z,9.10
2019-06-08T03:27:47.870Z,9.10
2019-06-08T03:30:18.575Z,9.10
2019-06-08T03:32:54.021Z,9.10
2019-06-08T03:35:14.827Z,9.10
2019-06-08T03:37:44.315Z,9.10
2019-06-08T03:40:12.288Z,9.10
2019-06-08T03:42:39.969Z,9.10
2019-06-08T03:45:08.196Z,9.10
2019-06-08T03:47:37.060Z,9.10
2019-06-08T03:50:05.514Z,9.10
2019-06-08T03:52:35.344Z,9.10
2019-06-08T03:55:02.980Z,9.10
2019-06-08T03:57:30.673Z,9.00
2019-06-08T03:59:58.375Z,9.00
2019-06-08T04:02:26.061Z,8.90
2019-06-08T04:04:53.790Z,8.90
2019-06-08T04:07:21.705Z,9.00
2019-06-08T04:09:49.941Z,9.00
2019-06-08T04:12:17.765Z,9.00
2019-06-08T04:14:46.658Z,9.00
2019-06-08T04:17:14.670Z,9.00
2019-06-08T04:20:04.383Z,9.00
2019-06-08T04:22:11.845Z,9.00
2019-06-08T04:24:40.177Z,9.00
2019-06-08T04:27:08.328Z,9.10
2019-06-08T04:29:37.519Z,9.30
2019-06-08T04:32:05.703Z,9.70
2019-06-08T04:34:35.462Z,10.10
2019-06-08T04:37:05.300Z,10.50
2019-06-08T04:39:38.252Z,10.80
2019-06-08T04:42:06.068Z,11.10
2019-06-08T04:44:33.784Z,11.60
2019-06-08T04:47:08.126Z,12.10
2019-06-08T04:49:35.929Z,12.50
2019-06-08T04:52:03.835Z,12.90
2019-06-08T04:54:31.560Z,13.30
2019-06-08T04:56:59.375Z,13.60
2019-06-08T04:59:27.050Z,13.90
2019-06-08T05:01:54.824Z,14.30
2019-06-08T05:04:22.643Z,14.60
2019-06-08T05:06:50.344Z,14.70
2019-06-08T05:09:18.039Z,15.00
2019-06-08T05:11:47.336Z,15.20
2019-06-08T05:14:15.284Z,15.30
2019-06-08T05:16:43.218Z,15.50
2019-06-08T05:19:10.998Z,15.80
2019-06-08T05:21:39.496Z,15.90
2019-06-08T05:24:07.529Z,16.10
2019-06-08T05:26:35.979Z,16.50
2019-06-08T05:29:03.879Z,16.80
2019-06-08T05:31:31.572Z,17.00
2019-06-08T05:33:59.304Z,17.10
2019-06-08T05:36:27.007Z,17.20
2019-06-08T05:38:54.760Z,17.20
2019-06-08T05:41:24.241Z,17.30
2019-06-08T05:43:51.949Z,17.70
2019-06-08T05:46:19.670Z,17.80
2019-06-08T05:48:48.014Z,18.10
2019-06-08T05:51:15.701Z,18.30
2019-06-08T05:53:43.825Z,18.50
2019-06-08T05:56:11.597Z,18.50
2019-06-08T05:58:39.868Z,18.60
2019-06-08T06:01:07.713Z,18.70
2019-06-08T06:03:35.420Z,18.80
2019-06-08T06:06:03.476Z,18.90
2019-06-08T06:08:31.207Z,19.10
2019-06-08T06:10:58.954Z,19.10
2019-06-08T06:13:26.663Z,19.30
2019-06-08T06:15:54.643Z,19.50
2019-06-08T06:18:22.349Z,19.80
2019-06-08T06:20:51.337Z,19.80
2019-06-08T06:23:20.919Z,19.80
2019-06-08T06:25:49.622Z,19.80
2019-06-08T06:28:17.587Z,19.90
2019-06-08T06:30:46.582Z,20.40
2019-06-08T06:33:14.869Z,20.60
2019-06-08T06:35:43.629Z,20.70
2019-06-08T06:38:12.267Z,21.10
2019-06-08T06:40:39.980Z,21.20
2019-06-08T06:43:10.441Z,21.00
2019-06-08T06:45:38.247Z,21.00
2019-06-08T06:48:05.981Z,20.90
2019-06-08T06:50:33.659Z,20.90
2019-06-08T06:53:01.384Z,20.90
2019-06-08T06:55:29.516Z,20.80
2019-06-08T06:57:57.179Z,20.80
2019-06-08T07:00:32.489Z,20.90
2019-06-08T07:03:00.645Z,21.20
2019-06-08T07:05:29.731Z,21.30
2019-06-08T07:07:57.416Z,21.40
2019-06-08T07:10:25.232Z,21.10
2019-06-08T07:12:52.944Z,21.30
2019-06-08T07:15:26.781Z,21.30
2019-06-08T07:17:55.034Z,21.30
2019-06-08T07:20:23.073Z,21.60
2019-06-08T07:22:50.808Z,21.80
2019-06-08T07:25:24.416Z,21.70
2019-06-08T07:27:54.941Z,21.70
2019-06-08T07:30:22.916Z,22.10
2019-06-08T07:32:50.937Z,22.30
2019-06-08T07:35:19.233Z,22.00
2019-06-08T07:37:48.650Z,21.50
2019-06-08T07:40:16.974Z,21.70
2019-06-08T07:42:44.649Z,22.10
2019-06-08T07:45:12.465Z,22.70
2019-06-08T07:47:40.177Z,22.90
2019-06-08T07:50:08.188Z,23.40
2019-06-08T07:52:35.896Z,23.50
2019-06-08T07:55:03.917Z,23.20
2019-06-08T07:57:31.630Z,23.50
2019-06-08T08:00:00.185Z,23.70
2019-06-08T08:02:27.976Z,23.20
2019-06-08T08:04:56.717Z,23.20
2019-06-08T08:07:24.792Z,23.40
2019-06-08T08:09:53.184Z,23.30
2019-06-08T08:12:21.210Z,22.90
2019-06-08T08:14:49.160Z,22.50
2019-06-08T08:17:16.890Z,22.30
2019-06-08T08:19:44.673Z,22.60
2019-06-08T08:22:22.157Z,22.80
2019-06-08T08:24:41.939Z,22.80
2019-06-08T08:27:09.792Z,23.00
2019-06-08T08:29:38.266Z,23.30
2019-06-08T08:32:07.583Z,23.40
2019-06-08T08:34:39.472Z,23.60
2019-06-08T08:37:09.656Z,23.20
2019-06-08T08:39:37.645Z,22.60
2019-06-08T08:42:05.676Z,22.30
2019-06-08T08:44:37.786Z,22.40
2019-06-08T08:47:09.983Z,22.60
2019-06-08T08:49:38.157Z,23.00
2019-06-08T08:52:11.167Z,23.20
2019-06-08T08:54:37.710Z,23.10
2019-06-08T08:57:08.311Z,23.20
2019-06-08T08:59:40.388Z,23.20
2019-06-08T09:02:11.504Z,22.90
2019-06-08T09:04:40.415Z,22.90
2019-06-08T09:07:10.622Z,22.70
2019-06-08T09:09:39.016Z,22.70
2019-06-08T09:12:18.050Z,22.90
2019-06-08T09:14:44.624Z,23.10
2019-06-08T09:17:22.728Z,23.40
2019-06-08T09:19:52.947Z,23.50
2019-06-08T09:22:21.282Z,23.80
2019-06-08T09:24:49.045Z,24.20
2019-06-08T09:27:18.168Z,23.80
2019-06-08T09:29:48.248Z,23.80
2019-06-08T09:32:18.025Z,23.70
2019-06-08T09:34:45.532Z,23.80
2019-06-08T09:37:13.381Z,23.70
2019-06-08T09:39:43.748Z,23.50
2019-06-08T09:42:11.483Z,23.40
2019-06-08T09:44:39.260Z,23.80
2019-06-08T09:47:12.104Z,24.10
2019-06-08T09:49:37.749Z,24.00
2019-06-08T09:52:08.526Z,23.70
2019-06-08T09:54:38.238Z,23.70
2019-06-08T09:57:06.767Z,23.90
2019-06-08T09:59:35.304Z,24.20
2019-06-08T10:02:07.438Z,24.20
2019-06-08T10:04:33.078Z,24.30
2019-06-08T10:07:04.299Z,24.40
2019-06-08T10:09:33.798Z,24.20
2019-06-08T10:12:24.565Z,24.20
2019-06-08T10:15:00.655Z,24.20
2019-06-08T10:17:31.932Z,24.30
2019-06-08T10:20:01.196Z,24.40
2019-06-08T10:22:54.796Z,24.50
2019-06-08T10:25:24.682Z,24.50
2019-06-08T10:27:55.069Z,24.60
2019-06-08T10:30:23.712Z,24.70
2019-06-08T10:32:51.748Z,24.10
2019-06-08T10:35:21.062Z,23.00
2019-06-08T10:37:51.229Z,22.70
2019-06-08T10:40:20.413Z,23.10
2019-06-08T10:42:48.811Z,23.50
2019-06-08T10:45:18.508Z,24.00
2019-06-08T10:47:47.943Z,24.40
2019-06-08T10:50:19.070Z,24.50
2019-06-08T10:52:46.076Z,24.50
2019-06-08T10:55:14.114Z,24.40
2019-06-08T10:57:44.592Z,24.40
2019-06-08T11:00:20.923Z,24.30
2019-06-08T11:02:44.047Z,24.20
2019-06-08T11:05:13.882Z,24.20
2019-06-08T11:07:41.558Z,24.20
2019-06-08T11:10:12.208Z,24.20
2019-06-08T11:12:38.944Z,24.00
2019-06-08T11:15:09.591Z,24.10
2019-06-08T11:17:37.861Z,24.00
2019-06-08T11:20:11.145Z,23.50
2019-06-08T11:22:36.118Z,23.60
2019-06-08T11:25:08.317Z,23.80
2019-06-08T11:27:38.659Z,24.10
2019-06-08T11:30:19.153Z,24.50
2019-06-08T11:32:38.208Z,24.50
2019-06-08T11:35:08.145Z,24.50
2019-06-08T11:37:35.396Z,24.80
2019-06-08T11:40:04.567Z,25.00
2019-06-08T11:42:32.424Z,24.70
2019-06-08T11:45:04.412Z,24.80
2019-06-08T11:47:40.971Z,25.00
2019-06-08T11:50:12.929Z,24.60
2019-06-08T11:52:41.042Z,24.50
2019-06-08T11:55:11.231Z,24.20
2019-06-08T11:57:40.378Z,24.00
2019-06-08T12:00:18.446Z,24.10
2019-06-08T12:02:41.406Z,24.20
2019-06-08T12:05:11.131Z,24.40
2019-06-08T12:07:38.227Z,24.70
2019-06-08T12:10:08.631Z,24.70
2019-06-08T12:12:38.340Z,24.10
2019-06-08T12:15:09.396Z,23.30
2019-06-08T12:17:35.699Z,22.90
2019-06-08T12:20:03.641Z,22.50
2019-06-08T12:22:31.348Z,22.30
2019-06-08T12:24:59.148Z,22.20
2019-06-08T12:27:35.948Z,21.90
2019-06-08T12:29:58.790Z,22.00
2019-06-08T12:32:27.850Z,22.10
2019-06-08T12:34:59.819Z,21.80
2019-06-08T12:37:27.432Z,22.10
2019-06-08T12:39:54.875Z,22.50
2019-06-08T12:42:25.271Z,22.30
2019-06-08T12:44:52.983Z,22.30
2019-06-08T12:47:26.533Z,22.20
2019-06-08T12:49:50.913Z,22.60
2019-06-08T12:52:22.175Z,23.00
2019-06-08T12:55:00.074Z,23.20
2019-06-08T12:57:22.095Z,23.40
2019-06-08T12:59:50.934Z,23.60
2019-06-08T13:02:23.873Z,23.70
2019-06-08T13:04:48.138Z,23.60
2019-06-08T13:07:17.012Z,23.70
2019-06-08T13:09:45.092Z,23.80
2019-06-08T13:12:13.168Z,24.00
2019-06-08T13:14:47.745Z,24.10
2019-06-08T13:17:19.269Z,24.10
2019-06-08T13:19:48.104Z,23.80
2019-06-08T13:22:28.022Z,23.60
2019-06-08T13:24:51.503Z,23.60
2019-06-08T13:27:22.601Z,23.50
2019-06-08T13:29:49.618Z,23.50
2019-06-08T13:32:19.012Z,23.60
2019-06-08T13:34:47.343Z,23.80
2019-06-08T13:37:18.919Z,23.60
2019-06-08T13:39:46.000Z,23.40
2019-06-08T13:42:13.709Z,23.40
2019-06-08T13:44:41.493Z,23.50
2019-06-08T13:47:11.159Z,23.60
2019-06-08T13:49:38.924Z,23.70
2019-06-08T13:52:08.643Z,23.80
2019-06-08T13:54:38.157Z,23.70
2019-06-08T13:57:08.686Z,23.60
2019-06-08T13:59:38.836Z,23.20
2019-06-08T14:02:06.027Z,23.10
2019-06-08T14:04:33.832Z,23.10
2019-06-08T14:07:01.673Z,23.20
2019-06-08T14:09:31.425Z,23.30
2019-06-08T14:12:01.128Z,23.50
2019-06-08T14:14:29.144Z,23.70
2019-06-08T14:16:58.699Z,23.90
2019-06-08T14:19:31.068Z,23.90
2019-06-08T14:21:56.461Z,23.30
2019-06-08T14:24:28.014Z,23.00
2019-06-08T14:26:53.811Z,22.70
2019-06-08T14:29:23.019Z,22.50
2019-06-08T14:31:51.247Z,22.30
2019-06-08T14:34:21.809Z,22.40
2019-06-08T14:36:48.978Z,22.50
2019-06-08T14:39:18.815Z,22.70
2019-06-08T14:41:49.221Z,22.80
2019-06-08T14:44:18.345Z,23.00
2019-06-08T14:46:45.270Z,23.10
2019-06-08T14:49:12.984Z,23.00
2019-06-08T14:51:50.216Z,23.00
2019-06-08T14:54:23.497Z,23.00
2019-06-08T14:56:50.493Z,22.90
2019-06-08T14:59:19.890Z,22.80
2019-06-08T15:01:48.958Z,22.80
2019-06-08T15:04:20.272Z,22.80
2019-06-08T15:06:49.001Z,22.90
2019-06-08T15:09:17.703Z,23.00
2019-06-08T15:11:45.338Z,22.90
2019-06-08T15:14:14.787Z,22.90
2019-06-08T15:16:42.610Z,22.80
2019-06-08T15:19:10.381Z,22.70
2019-06-08T15:21:38.148Z,22.60
2019-06-08T15:24:07.969Z,22.60
2019-06-08T15:26:42.314Z,22.30
2019-06-08T15:29:07.390Z,22.30
2019-06-08T15:31:34.956Z,22.40
2019-06-08T15:34:23.101Z,22.50
2019-06-08T15:36:53.473Z,22.60
2019-06-08T15:39:23.472Z,22.60
2019-06-08T15:41:51.393Z,22.60
2019-06-08T15:44:21.714Z,22.60
2019-06-08T15:46:48.736Z,22.50
2019-06-08T15:49:18.478Z,22.50
2019-06-08T15:51:47.984Z,22.60
2019-06-08T15:54:15.597Z,22.60
2019-06-08T15:56:49.438Z,22.50
2019-06-08T15:59:12.892Z,22.60
2019-06-08T16:01:41.668Z,22.50
2019-06-08T16:04:09.568Z,22.30
2019-06-08T16:06:37.323Z,22.00
2019-06-08T16:09:07.435Z,21.80
2019-06-08T16:11:35.116Z,21.60
2019-06-08T16:14:03.128Z,21.60
2019-06-08T16:16:31.142Z,21.70
2019-06-08T16:18:59.471Z,21.80
2019-06-08T16:21:27.445Z,21.90
2019-06-08T16:23:55.495Z,21.90
2019-06-08T16:26:23.379Z,21.90
2019-06-08T16:28:51.254Z,22.00
2019-06-08T16:31:18.969Z,21.90
2019-06-08T16:33:46.676Z,21.70
2019-06-08T16:36:14.467Z,21.60
2019-06-08T16:38:42.279Z,21.50
2019-06-08T16:41:10.166Z,21.60
2019-06-08T16:43:39.054Z,21.60
2019-06-08T16:46:07.103Z,21.50
2019-06-08T16:48:36.262Z,21.60
2019-06-08T16:51:04.352Z,21.40
2019-06-08T16:53:32.506Z,21.10
2019-06-08T16:56:01.589Z,21.00
2019-06-08T16:58:30.025Z,21.00
2019-06-08T17:00:57.784Z,21.00
2019-06-08T17:03:25.480Z,20.90
2019-06-08T17:05:53.407Z,20.80
2019-06-08T17:08:21.200Z,20.90
2019-06-08T17:10:48.926Z,21.00
2019-06-08T17:13:16.778Z,21.00
2019-06-08T17:15:44.552Z,21.00
2019-06-08T17:18:12.388Z,20.90
2019-06-08T17:20:41.816Z,20.90
2019-06-08T17:23:09.487Z,21.00
2019-06-08T17:25:38.628Z,21.10
2019-06-08T17:28:06.775Z,21.10
2019-06-08T17:30:35.768Z,21.10
2019-06-08T17:33:04.008Z,21.00
2019-06-08T17:35:33.373Z,21.00
2019-06-08T17:38:01.848Z,20.80
2019-06-08T17:40:29.555Z,20.80
2019-06-08T17:42:57.309Z,20.70
2019-06-08T17:45:25.145Z,20.70
2019-06-08T17:47:53.367Z,20.60
2019-06-08T17:50:21.327Z,20.50
2019-06-08T17:52:49.045Z,20.50
2019-06-08T17:55:17.020Z,20.50
2019-06-08T17:57:53.287Z,20.50
2019-06-08T18:00:16.202Z,20.50
2019-06-08T18:02:45.347Z,20.50
2019-06-08T18:05:13.652Z,20.50
2019-06-08T18:07:43.826Z,20.40
2019-06-08T18:10:11.145Z,20.30
2019-06-08T18:12:42.549Z,20.30
2019-06-08T18:15:09.173Z,20.30
2019-06-08T18:17:40.804Z,20.30
2019-06-08T18:20:11.088Z,20.40
2019-06-08T18:22:41.485Z,20.20
2019-06-08T18:25:08.524Z,20.10
2019-06-08T18:27:39.155Z,20.00
2019-06-08T18:30:08.982Z,19.90
2019-06-08T18:32:38.928Z,19.80
2019-06-08T18:35:07.671Z,19.70
2019-06-08T18:37:38.114Z,19.60
2019-06-08T18:40:07.803Z,19.60
2019-06-08T18:42:38.444Z,19.60
2019-06-08T18:45:07.459Z,19.50
2019-06-08T18:47:38.797Z,19.40
2019-06-08T18:50:08.648Z,19.40
2019-06-08T18:52:38.139Z,19.30
2019-06-08T18:55:05.345Z,19.30
2019-06-08T18:57:33.929Z,19.20
2019-06-08T19:00:08.390Z,19.10
2019-06-08T19:02:33.059Z,19.00
2019-06-08T19:05:01.103Z,18.90
2019-06-08T19:07:30.046Z,18.90
2019-06-08T19:09:58.900Z,18.80
2019-06-08T19:12:27.764Z,18.70
2019-06-08T19:14:55.832Z,18.70
2019-06-08T19:17:28.269Z,18.60
2019-06-08T19:19:57.799Z,18.50
2019-06-08T19:22:25.216Z,18.50
2019-06-08T19:24:52.992Z,18.50
2019-06-08T19:27:20.683Z,18.40
2019-06-08T19:29:51.422Z,18.30
2019-06-08T19:32:17.997Z,18.20
2019-06-08T19:34:52.334Z,18.10
2019-06-08T19:37:17.305Z,18.00
2019-06-08T19:39:46.749Z,18.00
2019-06-08T19:42:17.413Z,17.90
2019-06-08T19:44:54.583Z,17.90
2019-06-08T19:47:14.476Z,17.80
2019-06-08T19:49:42.842Z,17.70
2019-06-08T19:52:10.875Z,17.70
2019-06-08T19:54:42.726Z,17.60
2019-06-08T19:57:08.255Z,17.50
2019-06-08T19:59:38.251Z,17.40
2019-06-08T20:02:08.476Z,17.30
2019-06-08T20:04:35.284Z,17.20
2019-06-08T20:07:03.065Z,17.20
2019-06-08T20:09:30.904Z,17.20
2019-06-08T20:12:00.144Z,17.10
2019-06-08T20:14:28.172Z,17.00
2019-06-08T20:16:57.806Z,17.00
2019-06-08T20:19:27.779Z,16.90
2019-06-08T20:21:58.137Z,16.90
2019-06-08T20:24:27.760Z,16.80
2019-06-08T20:26:54.863Z,16.80
2019-06-08T20:29:22.570Z,16.70
2019-06-08T20:31:51.601Z,16.70
2019-06-08T20:34:19.737Z,16.70
2019-06-08T20:36:48.724Z,16.60
2019-06-08T20:39:18.078Z,16.60
2019-06-08T20:41:48.504Z,16.50
2019-06-08T20:44:15.948Z,16.50
2019-06-08T20:46:44.664Z,16.40
2019-06-08T20:49:12.384Z,16.30
2019-06-08T20:51:40.297Z,16.30
2019-06-08T20:54:08.153Z,16.30
2019-06-08T20:56:37.263Z,16.20
2019-06-08T20:59:05.068Z,16.20
2019-06-08T21:01:32.788Z,16.10
2019-06-08T21:04:00.495Z,16.10
2019-06-08T21:06:28.197Z,16.00
2019-06-08T21:08:57.933Z,16.00
2019-06-08T21:11:27.111Z,15.90
2019-06-08T21:13:55.394Z,15.80
2019-06-08T21:16:23.345Z,15.80
2019-06-08T21:18:51.031Z,15.70
2019-06-08T21:21:18.764Z,15.70
2019-06-08T21:23:50.932Z,15.70
2019-06-08T21:26:17.900Z,15.70
2019-06-08T21:28:49.814Z,15.60
2019-06-08T21:31:17.677Z,15.60
2019-06-08T21:33:47.648Z,15.60
2019-06-08T21:36:14.848Z,15.50
2019-06-08T21:38:42.579Z,15.50
2019-06-08T21:41:10.292Z,15.60
2019-06-08T21:43:38.030Z,15.60
2019-06-08T21:46:07.599Z,15.60
2019-06-08T21:48:35.298Z,15.60
2019-06-08T21:51:02.973Z,15.70
2019-06-08T21:53:30.680Z,15.60
2019-06-08T21:55:58.471Z,15.60
2019-06-08T21:58:26.225Z,15.60
2019-06-08T22:00:59.720Z,15.60
2019-06-08T22:03:28.120Z,15.50
2019-06-08T22:05:58.592Z,15.40
2019-06-08T22:08:26.085Z,15.40
2019-06-08T22:10:54.364Z,15.30
2019-06-08T22:13:22.131Z,15.30
2019-06-08T22:15:51.530Z,15.20
2019-06-08T22:18:19.365Z,15.20
2019-06-08T22:20:47.779Z,15.10
2019-06-08T22:23:17.896Z,15.10
2019-06-08T22:25:47.608Z,15.10
2019-06-08T22:28:14.719Z,15.10
2019-06-08T22:30:43.144Z,15.10
2019-06-08T22:33:11.030Z,15.10
2019-06-08T22:35:39.222Z,15.10
2019-06-08T22:38:08.419Z,15.10
2019-06-08T22:40:37.121Z,15.10
2019-06-08T22:43:05.129Z,15.10
2019-06-08T22:45:32.845Z,15.20
2019-06-08T22:48:02.096Z,15.10
2019-06-08T22:50:30.081Z,15.10
2019-06-08T22:52:59.453Z,15.10
2019-06-08T22:55:27.740Z,15.10
2019-06-08T22:57:55.712Z,15.00
2019-06-08T23:00:24.909Z,14.90
2019-06-08T23:02:54.414Z,14.80
2019-06-08T23:05:22.613Z,14.80
2019-06-08T23:07:50.309Z,14.70
2019-06-08T23:10:18.099Z,14.70
2019-06-08T23:12:47.185Z,14.60
2019-06-08T23:15:15.305Z,14.50
2019-06-08T23:17:43.046Z,14.50
2019-06-08T23:20:11.484Z,14.50
2019-06-08T23:22:39.192Z,14.50
2019-06-08T23:25:09.544Z,14.50
2019-06-08T23:27:37.936Z,14.50
2019-06-08T23:30:09.990Z,14.50
2019-06-08T23:32:38.369Z,14.40
2019-06-08T23:35:07.903Z,14.40
2019-06-08T23:37:37.400Z,14.40
2019-06-08T23:40:05.506Z,14.40
2019-06-08T23:42:33.358Z,14.40
2019-06-08T23:45:02.292Z,14.20
2019-06-08T23:47:30.369Z,14.30
2019-06-08T23:50:01.628Z,14.20
2019-06-08T23:52:27.872Z,14.10
2019-06-08T23:54:55.568Z,14.10
2019-06-08T23:57:23.268Z,14.00
2019-06-08T23:59:50.968Z,14.10
